Capitol Logistics 2186

Operating for AJT



KPHL
Philadelphia International Airport
Philadelphia, Pennsylvania
KONT
Ontario International Airport
Ontario, California

Activity Log

Date Flight Route Aircraft Duration
No Flights Yet

Route Details

Aircraft Information
Group: Boeing Common
Types: B752,B762,B763
Route Data
Demand: M
Distance: 2045nm
Duration: 5h 15m
Recm'd Route: MXE PENSY J110 BEETS Q430 AIR ROD BVT BDF FOD J94 BFF J157 LAR SAKES BLD Q114 NATEE JCKIE2
Origin Wx: KPHL 270654Z 14003KT 3/4SM R09R/4000V5000FT BR OVC002 19/19 A3002 RMK AO2 SLP164 T01940189
Dest. Wx: KONT 270653Z 00000KT 10SM FEW250 14/12 A3002 RMK AO2 SLP154 T01440117
Notes:

Financial History
Total Freight: 0lbs
Average Load: 0lbs/flt
Fuel Used: 0lbs
Avg. Fuel Used: 0lbs/flt
Fuel Expense: $0
Avg. Fuel Expense: $0
Avg. Fuel Cost: $0/lbs
Total Gross Income: $0
Pilot Pay: $0
Total Expenses: $0
Total Revenue: $0
Average Revenue: $0